Erie, Pennsylvania
Current Conditions -  °F | °C
As of 3:51 PM on Monday 22 Dec 2014 (Local Time) from KERI Reporting Station
Clear Clear  
Wind Chill: 37°   Ceiling: Unl
Heat Index: 42°   Visibility: 10mi
Dew Point: 27°   Wind: 8mph
Humidity: 55%   Direction: 100°E
Pressure: 30.01"   Gusts: NA
Location:  42.13°N, 80.08°W
Report Text: KERI 222051Z 10007KT 10SM CLR 06/M03 A3001 RMK AO2 SLP169 T00561028 56019
Loading
Personal Weather Stations






























Interactive Weather Map New forecast layout! Learn more

10-Day Weather Forecast

Advertisements
Track Severe Weather on mobile